sensor_id;sensor_type;location;lat;lon;timestamp;P1;durP1;ratioP1;P2;durP2;ratioP2
32501;SDS011;18952;52.516;13.460;2023-10-19T00:01:32;21.92;;;18.30;;
32501;SDS011;18952;52.516;13.460;2023-10-19T00:03:59;24.88;;;17.95;;
32501;SDS011;18952;52.516;13.460;2023-10-19T00:06:26;25.95;;;19.52;;
32501;SDS011;18952;52.516;13.460;2023-10-19T00:08:53;24.17;;;17.98;;
32501;SDS011;18952;52.516;13.460;2023-10-19T00:11:19;21.85;;;18.38;;
32501;SDS011;18952;52.516;13.460;2023-10-19T00:13:47;27.27;;;18.17;;
32501;SDS011;18952;52.516;13.460;2023-10-19T00:16:14;24.08;;;17.80;;
32501;SDS011;18952;52.516;13.460;2023-10-19T00:18:41;24.00;;;17.00;;
32501;SDS011;18952;52.516;13.460;2023-10-19T00:21:08;24.20;;;18.23;;
32501;SDS011;18952;52.516;13.460;2023-10-19T00:23:36;29.00;;;18.52;;
32501;SDS011;18952;52.516;13.460;2023-10-19T00:26:03;24.25;;;17.92;;
32501;SDS011;18952;52.516;13.460;2023-10-19T00:28:30;24.10;;;17.95;;
32501;SDS011;18952;52.516;13.460;2023-10-19T00:30:56;21.77;;;17.88;;
32501;SDS011;18952;52.516;13.460;2023-10-19T00:33:23;23.50;;;17.23;;
32501;SDS011;18952;52.516;13.460;2023-10-19T00:35:50;20.38;;;17.58;;
32501;SDS011;18952;52.516;13.460;2023-10-19T00:38:17;25.38;;;18.65;;
32501;SDS011;18952;52.516;13.460;2023-10-19T00:40:46;25.00;;;18.73;;
32501;SDS011;18952;52.516;13.460;2023-10-19T00:43:25;25.02;;;17.98;;
32501;SDS011;18952;52.516;13.460;2023-10-19T00:45:53;23.45;;;18.92;;
32501;SDS011;18952;52.516;13.460;2023-10-19T00:48:20;24.52;;;18.85;;
32501;SDS011;18952;52.516;13.460;2023-10-19T00:50:47;27.38;;;18.35;;
32501;SDS011;18952;52.516;13.460;2023-10-19T00:53:14;30.15;;;20.58;;
32501;SDS011;18952;52.516;13.460;2023-10-19T00:55:41;27.92;;;19.02;;
32501;SDS011;18952;52.516;13.460;2023-10-19T00:58:08;23.58;;;18.88;;
32501;SDS011;18952;52.516;13.460;2023-10-19T01:00:36;25.20;;;19.05;;
32501;SDS011;18952;52.516;13.460;2023-10-19T01:03:03;23.85;;;19.80;;
32501;SDS011;18952;52.516;13.460;2023-10-19T01:05:32;24.23;;;19.70;;
32501;SDS011;18952;52.516;13.460;2023-10-19T01:07:59;25.38;;;19.73;;
32501;SDS011;18952;52.516;13.460;2023-10-19T01:10:26;26.35;;;20.30;;
32501;SDS011;18952;52.516;13.460;2023-10-19T01:12:53;28.23;;;19.73;;
32501;SDS011;18952;52.516;13.460;2023-10-19T01:15:21;28.65;;;20.25;;
32501;SDS011;18952;52.516;13.460;2023-10-19T01:17:49;23.95;;;20.13;;
32501;SDS011;18952;52.516;13.460;2023-10-19T01:20:18;24.15;;;19.55;;
32501;SDS011;18952;52.516;13.460;2023-10-19T01:22:55;25.48;;;20.30;;
32501;SDS011;18952;52.516;13.460;2023-10-19T01:25:24;25.33;;;20.90;;
32501;SDS011;18952;52.516;13.460;2023-10-19T01:27:51;27.25;;;20.20;;
32501;SDS011;18952;52.516;13.460;2023-10-19T01:30:19;33.50;;;21.50;;
32501;SDS011;18952;52.516;13.460;2023-10-19T01:32:46;28.40;;;21.17;;
32501;SDS011;18952;52.516;13.460;2023-10-19T01:35:13;24.00;;;20.30;;
32501;SDS011;18952;52.516;13.460;2023-10-19T01:37:39;26.08;;;19.75;;
32501;SDS011;18952;52.516;13.460;2023-10-19T01:40:06;26.80;;;20.85;;
32501;SDS011;18952;52.516;13.460;2023-10-19T01:42:33;27.45;;;20.77;;
32501;SDS011;18952;52.516;13.460;2023-10-19T01:45:00;28.92;;;21.17;;
32501;SDS011;18952;52.516;13.460;2023-10-19T01:47:27;24.15;;;20.00;;
32501;SDS011;18952;52.516;13.460;2023-10-19T01:49:54;31.20;;;20.98;;
32501;SDS011;18952;52.516;13.460;2023-10-19T01:52:21;28.35;;;21.15;;
32501;SDS011;18952;52.516;13.460;2023-10-19T01:54:48;29.73;;;20.73;;
32501;SDS011;18952;52.516;13.460;2023-10-19T01:57:15;24.45;;;20.40;;
32501;SDS011;18952;52.516;13.460;2023-10-19T01:59:42;29.10;;;21.75;;
32501;SDS011;18952;52.516;13.460;2023-10-19T02:02:08;28.73;;;21.38;;
32501;SDS011;18952;52.516;13.460;2023-10-19T02:04:35;27.85;;;20.40;;
32501;SDS011;18952;52.516;13.460;2023-10-19T02:07:02;36.88;;;19.92;;
32501;SDS011;18952;52.516;13.460;2023-10-19T02:09:29;29.45;;;21.40;;
32501;SDS011;18952;52.516;13.460;2023-10-19T02:11:56;34.40;;;21.83;;
32501;SDS011;18952;52.516;13.460;2023-10-19T02:14:23;30.45;;;21.85;;
32501;SDS011;18952;52.516;13.460;2023-10-19T02:16:52;35.42;;;22.75;;
32501;SDS011;18952;52.516;13.460;2023-10-19T02:19:20;25.80;;;20.67;;
32501;SDS011;18952;52.516;13.460;2023-10-19T02:22:06;27.10;;;20.75;;
32501;SDS011;18952;52.516;13.460;2023-10-19T02:24:32;26.08;;;22.02;;
32501;SDS011;18952;52.516;13.460;2023-10-19T02:27:00;26.13;;;21.35;;
32501;SDS011;18952;52.516;13.460;2023-10-19T02:29:26;27.63;;;21.83;;
32501;SDS011;18952;52.516;13.460;2023-10-19T02:31:53;31.42;;;22.42;;
32501;SDS011;18952;52.516;13.460;2023-10-19T02:34:20;27.90;;;21.20;;
32501;SDS011;18952;52.516;13.460;2023-10-19T02:36:47;25.92;;;20.95;;
32501;SDS011;18952;52.516;13.460;2023-10-19T02:39:14;32.40;;;21.58;;
32501;SDS011;18952;52.516;13.460;2023-10-19T02:41:42;30.75;;;22.63;;
32501;SDS011;18952;52.516;13.460;2023-10-19T02:44:14;35.55;;;22.20;;
32501;SDS011;18952;52.516;13.460;2023-10-19T02:46:43;27.45;;;20.90;;
32501;SDS011;18952;52.516;13.460;2023-10-19T02:49:12;30.13;;;22.60;;
32501;SDS011;18952;52.516;13.460;2023-10-19T02:51:43;32.28;;;22.70;;
32501;SDS011;18952;52.516;13.460;2023-10-19T02:54:16;29.30;;;21.52;;
32501;SDS011;18952;52.516;13.460;2023-10-19T02:56:49;28.13;;;21.17;;
32501;SDS011;18952;52.516;13.460;2023-10-19T02:59:18;28.83;;;21.48;;
32501;SDS011;18952;52.516;13.460;2023-10-19T03:01:45;37.70;;;23.23;;
32501;SDS011;18952;52.516;13.460;2023-10-19T03:04:12;34.55;;;21.45;;
32501;SDS011;18952;52.516;13.460;2023-10-19T03:06:39;30.90;;;21.40;;
32501;SDS011;18952;52.516;13.460;2023-10-19T03:09:07;31.27;;;22.23;;
32501;SDS011;18952;52.516;13.460;2023-10-19T03:11:34;30.52;;;22.02;;
32501;SDS011;18952;52.516;13.460;2023-10-19T03:14:01;29.25;;;21.58;;
32501;SDS011;18952;52.516;13.460;2023-10-19T03:16:27;35.05;;;22.85;;
32501;SDS011;18952;52.516;13.460;2023-10-19T03:18:55;31.05;;;20.90;;
32501;SDS011;18952;52.516;13.460;2023-10-19T03:21:22;28.08;;;22.17;;
32501;SDS011;18952;52.516;13.460;2023-10-19T03:23:48;30.25;;;22.05;;
32501;SDS011;18952;52.516;13.460;2023-10-19T03:26:15;27.02;;;21.83;;
32501;SDS011;18952;52.516;13.460;2023-10-19T03:28:42;28.30;;;22.30;;
32501;SDS011;18952;52.516;13.460;2023-10-19T03:31:09;30.42;;;22.50;;
32501;SDS011;18952;52.516;13.460;2023-10-19T03:33:35;27.00;;;22.67;;
32501;SDS011;18952;52.516;13.460;2023-10-19T03:36:03;26.00;;;21.83;;
32501;SDS011;18952;52.516;13.460;2023-10-19T03:38:29;33.00;;;23.25;;
32501;SDS011;18952;52.516;13.460;2023-10-19T03:40:56;34.17;;;23.50;;
32501;SDS011;18952;52.516;13.460;2023-10-19T03:43:23;28.88;;;23.25;;
32501;SDS011;18952;52.516;13.460;2023-10-19T03:45:50;33.92;;;23.25;;
32501;SDS011;18952;52.516;13.460;2023-10-19T03:48:20;29.88;;;23.05;;
32501;SDS011;18952;52.516;13.460;2023-10-19T03:50:49;28.45;;;22.75;;
32501;SDS011;18952;52.516;13.460;2023-10-19T03:53:16;30.23;;;23.98;;
32501;SDS011;18952;52.516;13.460;2023-10-19T03:55:43;30.65;;;23.83;;
32501;SDS011;18952;52.516;13.460;2023-10-19T03:58:10;31.45;;;24.13;;
32501;SDS011;18952;52.516;13.460;2023-10-19T04:00:36;34.47;;;24.08;;
32501;SDS011;18952;52.516;13.460;2023-10-19T04:03:03;31.98;;;23.13;;
32501;SDS011;18952;52.516;13.460;2023-10-19T04:05:30;34.30;;;23.48;;
32501;SDS011;18952;52.516;13.460;2023-10-19T04:07:57;33.70;;;24.23;;
32501;SDS011;18952;52.516;13.460;2023-10-19T04:10:24;29.05;;;23.13;;
32501;SDS011;18952;52.516;13.460;2023-10-19T04:12:51;30.17;;;23.05;;
32501;SDS011;18952;52.516;13.460;2023-10-19T04:15:18;34.42;;;25.17;;
32501;SDS011;18952;52.516;13.460;2023-10-19T04:17:45;30.95;;;23.52;;
32501;SDS011;18952;52.516;13.460;2023-10-19T04:20:17;30.80;;;23.33;;
32501;SDS011;18952;52.516;13.460;2023-10-19T04:22:45;30.05;;;23.33;;
32501;SDS011;18952;52.516;13.460;2023-10-19T04:25:16;30.67;;;23.83;;
32501;SDS011;18952;52.516;13.460;2023-10-19T04:27:44;32.58;;;24.40;;
32501;SDS011;18952;52.516;13.460;2023-10-19T04:30:12;30.95;;;25.45;;
32501;SDS011;18952;52.516;13.460;2023-10-19T04:32:39;33.65;;;24.27;;
32501;SDS011;18952;52.516;13.460;2023-10-19T04:35:06;30.73;;;23.75;;
32501;SDS011;18952;52.516;13.460;2023-10-19T04:37:33;28.45;;;23.40;;
32501;SDS011;18952;52.516;13.460;2023-10-19T04:40:00;29.30;;;24.23;;
32501;SDS011;18952;52.516;13.460;2023-10-19T04:42:27;35.13;;;25.00;;
32501;SDS011;18952;52.516;13.460;2023-10-19T04:44:54;35.15;;;24.77;;
32501;SDS011;18952;52.516;13.460;2023-10-19T04:47:21;35.25;;;24.98;;
32501;SDS011;18952;52.516;13.460;2023-10-19T04:49:50;32.30;;;24.27;;
32501;SDS011;18952;52.516;13.460;2023-10-19T04:52:19;34.30;;;25.10;;
32501;SDS011;18952;52.516;13.460;2023-10-19T04:54:46;37.38;;;25.85;;
32501;SDS011;18952;52.516;13.460;2023-10-19T04:57:13;44.03;;;25.58;;
32501;SDS011;18952;52.516;13.460;2023-10-19T04:59:40;42.80;;;25.67;;
32501;SDS011;18952;52.516;13.460;2023-10-19T05:02:06;36.28;;;26.25;;
32501;SDS011;18952;52.516;13.460;2023-10-19T05:04:33;32.97;;;25.90;;
32501;SDS011;18952;52.516;13.460;2023-10-19T05:07:01;35.92;;;25.70;;
32501;SDS011;18952;52.516;13.460;2023-10-19T05:09:28;29.98;;;25.33;;
32501;SDS011;18952;52.516;13.460;2023-10-19T05:11:54;36.60;;;25.05;;
32501;SDS011;18952;52.516;13.460;2023-10-19T05:14:21;38.55;;;27.02;;
32501;SDS011;18952;52.516;13.460;2023-10-19T05:16:48;34.75;;;25.80;;
32501;SDS011;18952;52.516;13.460;2023-10-19T05:19:15;32.65;;;26.95;;
32501;SDS011;18952;52.516;13.460;2023-10-19T05:21:42;33.97;;;26.45;;
32501;SDS011;18952;52.516;13.460;2023-10-19T05:24:09;38.65;;;26.50;;
32501;SDS011;18952;52.516;13.460;2023-10-19T05:26:36;35.75;;;26.27;;
32501;SDS011;18952;52.516;13.460;2023-10-19T05:29:04;38.30;;;27.08;;
32501;SDS011;18952;52.516;13.460;2023-10-19T05:31:31;36.10;;;27.27;;
32501;SDS011;18952;52.516;13.460;2023-10-19T05:33:58;38.30;;;26.85;;
32501;SDS011;18952;52.516;13.460;2023-10-19T05:36:24;34.67;;;27.15;;
32501;SDS011;18952;52.516;13.460;2023-10-19T05:38:51;41.50;;;27.88;;
32501;SDS011;18952;52.516;13.460;2023-10-19T05:41:18;33.08;;;26.75;;
32501;SDS011;18952;52.516;13.460;2023-10-19T05:43:45;38.35;;;27.58;;
32501;SDS011;18952;52.516;13.460;2023-10-19T05:46:12;40.92;;;27.98;;
32501;SDS011;18952;52.516;13.460;2023-10-19T05:48:39;32.47;;;25.58;;
32501;SDS011;18952;52.516;13.460;2023-10-19T05:51:05;46.65;;;27.77;;
32501;SDS011;18952;52.516;13.460;2023-10-19T05:53:32;44.53;;;29.25;;
32501;SDS011;18952;52.516;13.460;2023-10-19T05:55:59;36.08;;;26.65;;
32501;SDS011;18952;52.516;13.460;2023-10-19T05:58:26;40.78;;;29.17;;
32501;SDS011;18952;52.516;13.460;2023-10-19T06:00:53;40.65;;;27.63;;
32501;SDS011;18952;52.516;13.460;2023-10-19T06:03:24;37.25;;;28.85;;
32501;SDS011;18952;52.516;13.460;2023-10-19T06:05:51;37.65;;;27.92;;
32501;SDS011;18952;52.516;13.460;2023-10-19T06:08:18;35.50;;;28.45;;
32501;SDS011;18952;52.516;13.460;2023-10-19T06:10:50;44.10;;;28.67;;
32501;SDS011;18952;52.516;13.460;2023-10-19T06:13:20;35.50;;;28.33;;
32501;SDS011;18952;52.516;13.460;2023-10-19T06:15:48;39.50;;;29.85;;
32501;SDS011;18952;52.516;13.460;2023-10-19T06:18:15;42.13;;;31.10;;
32501;SDS011;18952;52.516;13.460;2023-10-19T06:20:45;38.47;;;29.83;;
32501;SDS011;18952;52.516;13.460;2023-10-19T06:23:15;40.08;;;31.02;;
32501;SDS011;18952;52.516;13.460;2023-10-19T06:25:42;44.25;;;32.63;;
32501;SDS011;18952;52.516;13.460;2023-10-19T06:28:09;42.35;;;31.55;;
32501;SDS011;18952;52.516;13.460;2023-10-19T06:30:36;46.45;;;31.27;;
32501;SDS011;18952;52.516;13.460;2023-10-19T06:33:03;43.10;;;30.52;;
32501;SDS011;18952;52.516;13.460;2023-10-19T06:35:31;43.03;;;31.48;;
32501;SDS011;18952;52.516;13.460;2023-10-19T06:37:59;40.85;;;32.90;;
32501;SDS011;18952;52.516;13.460;2023-10-19T06:40:27;41.70;;;30.30;;
32501;SDS011;18952;52.516;13.460;2023-10-19T06:42:55;37.15;;;30.50;;
32501;SDS011;18952;52.516;13.460;2023-10-19T06:45:23;42.42;;;31.52;;
32501;SDS011;18952;52.516;13.460;2023-10-19T06:47:51;40.75;;;31.10;;
32501;SDS011;18952;52.516;13.460;2023-10-19T06:50:22;37.08;;;30.38;;
32501;SDS011;18952;52.516;13.460;2023-10-19T06:52:49;39.38;;;30.08;;
32501;SDS011;18952;52.516;13.460;2023-10-19T06:55:18;38.45;;;30.75;;
32501;SDS011;18952;52.516;13.460;2023-10-19T06:57:46;42.38;;;31.35;;
32501;SDS011;18952;52.516;13.460;2023-10-19T07:00:15;43.33;;;32.08;;
32501;SDS011;18952;52.516;13.460;2023-10-19T07:02:44;39.67;;;31.20;;
32501;SDS011;18952;52.516;13.460;2023-10-19T07:05:11;40.20;;;32.47;;
32501;SDS011;18952;52.516;13.460;2023-10-19T07:07:41;41.65;;;30.00;;
32501;SDS011;18952;52.516;13.460;2023-10-19T07:10:09;41.78;;;30.60;;
32501;SDS011;18952;52.516;13.460;2023-10-19T07:12:37;42.38;;;31.02;;
32501;SDS011;18952;52.516;13.460;2023-10-19T07:15:09;42.20;;;30.23;;
32501;SDS011;18952;52.516;13.460;2023-10-19T07:17:37;38.55;;;30.23;;
32501;SDS011;18952;52.516;13.460;2023-10-19T07:20:04;43.17;;;30.95;;
32501;SDS011;18952;52.516;13.460;2023-10-19T07:22:32;42.10;;;30.50;;
32501;SDS011;18952;52.516;13.460;2023-10-19T07:24:59;38.20;;;29.23;;
32501;SDS011;18952;52.516;13.460;2023-10-19T07:27:26;40.25;;;29.13;;
32501;SDS011;18952;52.516;13.460;2023-10-19T07:30:03;40.42;;;28.73;;
32501;SDS011;18952;52.516;13.460;2023-10-19T07:32:31;48.05;;;30.33;;
32501;SDS011;18952;52.516;13.460;2023-10-19T07:34:58;41.22;;;28.05;;
32501;SDS011;18952;52.516;13.460;2023-10-19T07:37:24;37.78;;;28.67;;
32501;SDS011;18952;52.516;13.460;2023-10-19T07:39:51;45.63;;;30.83;;
32501;SDS011;18952;52.516;13.460;2023-10-19T07:42:18;46.75;;;28.90;;
32501;SDS011;18952;52.516;13.460;2023-10-19T07:44:45;37.20;;;29.25;;
32501;SDS011;18952;52.516;13.460;2023-10-19T07:47:12;43.95;;;28.98;;
32501;SDS011;18952;52.516;13.460;2023-10-19T07:49:38;38.20;;;28.25;;
32501;SDS011;18952;52.516;13.460;2023-10-19T07:52:05;43.13;;;27.25;;
32501;SDS011;18952;52.516;13.460;2023-10-19T07:54:33;35.47;;;28.50;;
32501;SDS011;18952;52.516;13.460;2023-10-19T07:57:01;37.05;;;27.38;;
32501;SDS011;18952;52.516;13.460;2023-10-19T07:59:29;39.65;;;26.95;;
32501;SDS011;18952;52.516;13.460;2023-10-19T08:01:55;33.15;;;26.45;;
32501;SDS011;18952;52.516;13.460;2023-10-19T08:04:23;31.67;;;27.35;;
32501;SDS011;18952;52.516;13.460;2023-10-19T08:06:50;39.25;;;28.05;;
32501;SDS011;18952;52.516;13.460;2023-10-19T08:09:16;43.92;;;26.15;;
32501;SDS011;18952;52.516;13.460;2023-10-19T08:11:43;44.33;;;27.52;;
32501;SDS011;18952;52.516;13.460;2023-10-19T08:14:10;35.75;;;26.52;;
32501;SDS011;18952;52.516;13.460;2023-10-19T08:16:40;34.30;;;25.40;;
32501;SDS011;18952;52.516;13.460;2023-10-19T08:19:07;36.58;;;25.88;;
32501;SDS011;18952;52.516;13.460;2023-10-19T08:21:34;39.22;;;26.50;;
32501;SDS011;18952;52.516;13.460;2023-10-19T08:24:01;30.48;;;24.63;;
32501;SDS011;18952;52.516;13.460;2023-10-19T08:26:28;36.05;;;25.98;;
32501;SDS011;18952;52.516;13.460;2023-10-19T08:28:55;37.78;;;26.92;;
32501;SDS011;18952;52.516;13.460;2023-10-19T08:31:21;35.13;;;25.25;;
32501;SDS011;18952;52.516;13.460;2023-10-19T08:33:48;37.78;;;29.02;;
32501;SDS011;18952;52.516;13.460;2023-10-19T08:36:18;33.47;;;24.58;;
32501;SDS011;18952;52.516;13.460;2023-10-19T08:38:45;33.38;;;24.67;;
32501;SDS011;18952;52.516;13.460;2023-10-19T08:41:15;35.97;;;26.08;;
32501;SDS011;18952;52.516;13.460;2023-10-19T08:43:43;42.38;;;27.02;;
32501;SDS011;18952;52.516;13.460;2023-10-19T08:46:10;37.30;;;25.73;;
32501;SDS011;18952;52.516;13.460;2023-10-19T08:48:37;36.80;;;26.40;;
32501;SDS011;18952;52.516;13.460;2023-10-19T08:51:08;37.22;;;25.17;;
32501;SDS011;18952;52.516;13.460;2023-10-19T08:53:36;35.95;;;26.67;;
32501;SDS011;18952;52.516;13.460;2023-10-19T08:56:05;38.53;;;26.08;;
32501;SDS011;18952;52.516;13.460;2023-10-19T08:58:33;36.35;;;25.80;;
32501;SDS011;18952;52.516;13.460;2023-10-19T09:01:00;42.83;;;26.50;;
32501;SDS011;18952;52.516;13.460;2023-10-19T09:03:27;36.70;;;25.48;;
32501;SDS011;18952;52.516;13.460;2023-10-19T09:05:54;29.42;;;23.48;;
32501;SDS011;18952;52.516;13.460;2023-10-19T09:08:23;34.53;;;24.75;;
32501;SDS011;18952;52.516;13.460;2023-10-19T09:10:50;34.30;;;23.88;;
32501;SDS011;18952;52.516;13.460;2023-10-19T09:13:17;41.13;;;23.42;;
32501;SDS011;18952;52.516;13.460;2023-10-19T09:15:44;27.55;;;23.52;;
32501;SDS011;18952;52.516;13.460;2023-10-19T09:18:21;32.03;;;24.63;;
32501;SDS011;18952;52.516;13.460;2023-10-19T09:20:50;29.73;;;22.88;;
32501;SDS011;18952;52.516;13.460;2023-10-19T09:23:22;29.60;;;23.73;;
32501;SDS011;18952;52.516;13.460;2023-10-19T09:25:50;33.20;;;23.23;;
32501;SDS011;18952;52.516;13.460;2023-10-19T09:28:19;30.10;;;23.40;;
32501;SDS011;18952;52.516;13.460;2023-10-19T09:30:46;41.25;;;23.27;;
32501;SDS011;18952;52.516;13.460;2023-10-19T09:33:14;36.53;;;24.08;;
32501;SDS011;18952;52.516;13.460;2023-10-19T09:35:41;37.05;;;23.98;;
32501;SDS011;18952;52.516;13.460;2023-10-19T09:38:08;34.88;;;23.67;;
32501;SDS011;18952;52.516;13.460;2023-10-19T09:40:36;34.97;;;22.77;;
32501;SDS011;18952;52.516;13.460;2023-10-19T09:43:04;32.05;;;24.33;;
32501;SDS011;18952;52.516;13.460;2023-10-19T09:45:36;34.00;;;22.65;;
32501;SDS011;18952;52.516;13.460;2023-10-19T09:48:07;32.90;;;22.27;;
32501;SDS011;18952;52.516;13.460;2023-10-19T09:50:34;34.20;;;24.75;;
32501;SDS011;18952;52.516;13.460;2023-10-19T09:53:01;32.92;;;23.70;;
32501;SDS011;18952;52.516;13.460;2023-10-19T09:55:34;40.17;;;23.05;;
32501;SDS011;18952;52.516;13.460;2023-10-19T09:58:06;31.50;;;22.50;;
32501;SDS011;18952;52.516;13.460;2023-10-19T10:00:39;34.33;;;22.80;;
32501;SDS011;18952;52.516;13.460;2023-10-19T10:03:44;36.92;;;24.70;;
32501;SDS011;18952;52.516;13.460;2023-10-19T10:06:17;33.72;;;23.05;;
32501;SDS011;18952;52.516;13.460;2023-10-19T10:08:54;31.80;;;22.83;;
32501;SDS011;18952;52.516;13.460;2023-10-19T10:11:24;32.92;;;23.27;;
32501;SDS011;18952;52.516;13.460;2023-10-19T10:13:55;37.53;;;23.88;;
32501;SDS011;18952;52.516;13.460;2023-10-19T10:16:25;41.05;;;24.02;;
32501;SDS011;18952;52.516;13.460;2023-10-19T10:18:57;38.20;;;24.08;;
32501;SDS011;18952;52.516;13.460;2023-10-19T10:21:25;34.63;;;22.80;;
32501;SDS011;18952;52.516;13.460;2023-10-19T10:23:54;31.55;;;25.23;;
32501;SDS011;18952;52.516;13.460;2023-10-19T10:26:22;38.47;;;25.00;;
32501;SDS011;18952;52.516;13.460;2023-10-19T10:29:07;30.45;;;24.15;;
32501;SDS011;18952;52.516;13.460;2023-10-19T10:31:43;38.17;;;25.73;;
32501;SDS011;18952;52.516;13.460;2023-10-19T10:34:11;38.35;;;25.60;;
32501;SDS011;18952;52.516;13.460;2023-10-19T10:37:02;37.22;;;25.70;;
32501;SDS011;18952;52.516;13.460;2023-10-19T10:39:30;39.60;;;26.35;;
32501;SDS011;18952;52.516;13.460;2023-10-19T10:41:57;33.63;;;27.05;;
32501;SDS011;18952;52.516;13.460;2023-10-19T10:47:28;38.10;;;27.85;;
32501;SDS011;18952;52.516;13.460;2023-10-19T10:49:55;39.17;;;29.48;;
32501;SDS011;18952;52.516;13.460;2023-10-19T10:52:30;38.40;;;29.90;;
32501;SDS011;18952;52.516;13.460;2023-10-19T10:55:05;38.92;;;28.88;;
32501;SDS011;18952;52.516;13.460;2023-10-19T10:57:33;39.83;;;29.17;;
32501;SDS011;18952;52.516;13.460;2023-10-19T11:00:21;37.08;;;28.52;;
32501;SDS011;18952;52.516;13.460;2023-10-19T11:02:58;33.58;;;28.52;;
32501;SDS011;18952;52.516;13.460;2023-10-19T11:05:27;44.53;;;31.63;;
32501;SDS011;18952;52.516;13.460;2023-10-19T11:08:05;38.67;;;31.25;;
32501;SDS011;18952;52.516;13.460;2023-10-19T11:10:37;45.45;;;32.58;;
32501;SDS011;18952;52.516;13.460;2023-10-19T11:13:07;43.00;;;31.85;;
32501;SDS011;18952;52.516;13.460;2023-10-19T11:15:38;41.20;;;30.55;;
32501;SDS011;18952;52.516;13.460;2023-10-19T11:18:27;42.90;;;31.38;;
32501;SDS011;18952;52.516;13.460;2023-10-19T11:21:14;39.75;;;29.52;;
32501;SDS011;18952;52.516;13.460;2023-10-19T11:26:10;45.85;;;33.25;;
32501;SDS011;18952;52.516;13.460;2023-10-19T11:28:38;46.10;;;35.53;;
32501;SDS011;18952;52.516;13.460;2023-10-19T11:33:46;43.38;;;31.08;;
32501;SDS011;18952;52.516;13.460;2023-10-19T11:36:13;40.55;;;31.85;;
32501;SDS011;18952;52.516;13.460;2023-10-19T11:38:42;46.25;;;32.33;;
32501;SDS011;18952;52.516;13.460;2023-10-19T11:41:11;43.85;;;32.45;;
32501;SDS011;18952;52.516;13.460;2023-10-19T11:43:45;45.38;;;33.03;;
32501;SDS011;18952;52.516;13.460;2023-10-19T11:46:13;39.30;;;33.78;;
32501;SDS011;18952;52.516;13.460;2023-10-19T11:48:41;42.75;;;33.08;;
32501;SDS011;18952;52.516;13.460;2023-10-19T11:51:08;46.72;;;35.08;;
32501;SDS011;18952;52.516;13.460;2023-10-19T11:53:36;49.08;;;35.97;;
32501;SDS011;18952;52.516;13.460;2023-10-19T11:56:04;40.17;;;31.80;;
32501;SDS011;18952;52.516;13.460;2023-10-19T11:58:32;45.58;;;33.97;;
32501;SDS011;18952;52.516;13.460;2023-10-19T12:01:01;40.30;;;33.45;;
32501;SDS011;18952;52.516;13.460;2023-10-19T12:03:28;49.78;;;35.70;;
32501;SDS011;18952;52.516;13.460;2023-10-19T12:05:55;44.92;;;33.67;;
32501;SDS011;18952;52.516;13.460;2023-10-19T12:08:23;43.05;;;34.65;;
32501;SDS011;18952;52.516;13.460;2023-10-19T12:10:50;48.75;;;37.47;;
32501;SDS011;18952;52.516;13.460;2023-10-19T12:13:17;44.28;;;35.58;;
32501;SDS011;18952;52.516;13.460;2023-10-19T12:15:45;43.65;;;33.25;;
32501;SDS011;18952;52.516;13.460;2023-10-19T12:18:12;43.63;;;33.92;;
32501;SDS011;18952;52.516;13.460;2023-10-19T12:20:39;47.38;;;35.63;;
32501;SDS011;18952;52.516;13.460;2023-10-19T12:23:06;44.15;;;37.10;;
32501;SDS011;18952;52.516;13.460;2023-10-19T12:25:32;46.60;;;36.60;;
32501;SDS011;18952;52.516;13.460;2023-10-19T12:28:19;44.42;;;35.47;;
32501;SDS011;18952;52.516;13.460;2023-10-19T12:30:46;42.92;;;35.08;;
32501;SDS011;18952;52.516;13.460;2023-10-19T12:33:13;43.97;;;35.20;;
32501;SDS011;18952;52.516;13.460;2023-10-19T12:35:40;43.85;;;34.20;;
32501;SDS011;18952;52.516;13.460;2023-10-19T12:38:08;42.05;;;35.13;;
32501;SDS011;18952;52.516;13.460;2023-10-19T12:40:35;40.63;;;35.22;;
32501;SDS011;18952;52.516;13.460;2023-10-19T12:43:03;51.70;;;35.35;;
32501;SDS011;18952;52.516;13.460;2023-10-19T12:45:30;43.58;;;35.88;;
32501;SDS011;18952;52.516;13.460;2023-10-19T12:47:57;47.70;;;37.15;;
32501;SDS011;18952;52.516;13.460;2023-10-19T12:50:24;47.38;;;38.80;;
32501;SDS011;18952;52.516;13.460;2023-10-19T12:52:51;51.92;;;40.47;;
32501;SDS011;18952;52.516;13.460;2023-10-19T12:55:20;48.38;;;38.08;;
32501;SDS011;18952;52.516;13.460;2023-10-19T12:57:46;43.40;;;36.28;;
32501;SDS011;18952;52.516;13.460;2023-10-19T13:00:13;46.55;;;38.17;;
32501;SDS011;18952;52.516;13.460;2023-10-19T13:02:40;48.53;;;38.40;;
32501;SDS011;18952;52.516;13.460;2023-10-19T13:05:08;47.70;;;39.15;;
32501;SDS011;18952;52.516;13.460;2023-10-19T13:07:35;50.03;;;38.38;;
32501;SDS011;18952;52.516;13.460;2023-10-19T13:10:02;55.70;;;40.30;;
32501;SDS011;18952;52.516;13.460;2023-10-19T13:12:29;53.80;;;42.30;;
32501;SDS011;18952;52.516;13.460;2023-10-19T13:14:55;53.22;;;38.70;;
32501;SDS011;18952;52.516;13.460;2023-10-19T13:17:23;47.38;;;39.70;;
32501;SDS011;18952;52.516;13.460;2023-10-19T13:19:50;48.42;;;39.17;;
32501;SDS011;18952;52.516;13.460;2023-10-19T13:22:17;49.38;;;38.22;;
32501;SDS011;18952;52.516;13.460;2023-10-19T13:24:43;48.58;;;38.10;;
32501;SDS011;18952;52.516;13.460;2023-10-19T13:27:10;45.25;;;37.95;;
32501;SDS011;18952;52.516;13.460;2023-10-19T13:29:37;45.53;;;37.47;;
32501;SDS011;18952;52.516;13.460;2023-10-19T13:32:04;50.08;;;38.75;;
32501;SDS011;18952;52.516;13.460;2023-10-19T13:34:31;50.72;;;38.42;;
32501;SDS011;18952;52.516;13.460;2023-10-19T13:36:58;45.10;;;38.25;;
32501;SDS011;18952;52.516;13.460;2023-10-19T13:39:28;51.55;;;39.70;;
32501;SDS011;18952;52.516;13.460;2023-10-19T13:41:57;47.72;;;38.20;;
32501;SDS011;18952;52.516;13.460;2023-10-19T13:44:24;50.25;;;38.53;;
32501;SDS011;18952;52.516;13.460;2023-10-19T13:46:53;55.17;;;39.50;;
32501;SDS011;18952;52.516;13.460;2023-10-19T13:49:20;44.08;;;37.40;;
32501;SDS011;18952;52.516;13.460;2023-10-19T13:51:46;51.92;;;39.60;;
32501;SDS011;18952;52.516;13.460;2023-10-19T13:54:13;45.42;;;39.60;;
32501;SDS011;18952;52.516;13.460;2023-10-19T13:56:40;55.17;;;41.67;;
32501;SDS011;18952;52.516;13.460;2023-10-19T13:59:07;51.58;;;39.83;;
32501;SDS011;18952;52.516;13.460;2023-10-19T14:01:34;54.40;;;36.72;;
32501;SDS011;18952;52.516;13.460;2023-10-19T14:04:01;50.67;;;38.67;;
32501;SDS011;18952;52.516;13.460;2023-10-19T14:06:28;50.33;;;39.42;;
32501;SDS011;18952;52.516;13.460;2023-10-19T14:08:55;53.25;;;39.85;;
32501;SDS011;18952;52.516;13.460;2023-10-19T14:11:23;50.95;;;39.53;;
32501;SDS011;18952;52.516;13.460;2023-10-19T14:13:51;53.60;;;38.53;;
32501;SDS011;18952;52.516;13.460;2023-10-19T14:16:18;45.97;;;39.42;;
32501;SDS011;18952;52.516;13.460;2023-10-19T14:18:44;50.42;;;39.83;;
32501;SDS011;18952;52.516;13.460;2023-10-19T14:21:14;46.42;;;40.20;;
32501;SDS011;18952;52.516;13.460;2023-10-19T14:23:43;55.10;;;39.38;;